Time;durP1;ratioP1;P1;durP2;ratioP2;P2;SDS_P1;SDS_P2;PMS_P1;PMS_P2;Temp;Humidity;BMP_temperature;BMP_pressure;BME280_temperature;BME280_humidity;BME280_pressure;Samples;Min_cycle;Max_cycle;Signal;HPM_P1;HPM_P2
2022/09/01 00:00:47;;;;;;;1.90;1.80;;;17.20;99.90;;;;;;5054716;28;20230;-92
2022/09/01 00:03:17;;;;;;;2.60;2.40;;;17.20;99.90;;;;;;5054379;28;20243;-93
2022/09/01 00:05:49;;;;;;;2.65;2.33;;;17.20;99.90;;;;;;5054616;28;20206;-93
2022/09/01 00:08:18;;;;;;;2.35;1.92;;;17.30;99.90;;;;;;5061759;28;20213;-92
2022/09/01 00:10:48;;;;;;;2.13;2.00;;;17.30;99.90;;;;;;5057344;28;20281;-92
2022/09/01 00:13:17;;;;;;;2.60;2.40;;;17.30;99.90;;;;;;5054621;28;20281;-92
2022/09/01 00:15:46;;;;;;;1.80;1.70;;;17.30;99.90;;;;;;5054396;28;20197;-93
2022/09/01 00:18:14;;;;;;;3.65;2.42;;;17.30;99.90;;;;;;5054580;28;20213;-92
2022/09/01 00:20:43;;;;;;;2.60;2.40;;;17.30;99.90;;;;;;5054167;28;20221;-92
2022/09/01 00:23:11;;;;;;;2.92;2.70;;;17.30;99.90;;;;;;5054193;28;20217;-92
2022/09/01 00:25:40;;;;;;;2.25;2.15;;;17.40;99.90;;;;;;5054340;28;20205;-92
2022/09/01 00:28:10;;;;;;;2.13;1.98;;;17.30;99.90;;;;;;5054307;28;20293;-92
2022/09/01 00:30:39;;;;;;;2.42;2.22;;;17.20;99.90;;;;;;5053751;28;20206;-92
2022/09/01 00:33:08;;;;;;;2.50;2.30;;;17.20;99.90;;;;;;5054424;28;20209;-92
2022/09/01 00:35:36;;;;;;;2.50;2.30;;;17.20;99.90;;;;;;5054214;28;20205;-92
2022/09/01 00:38:05;;;;;;;2.60;2.40;;;17.20;99.90;;;;;;5053895;28;20240;-92
2022/09/01 00:40:34;;;;;;;3.22;2.38;;;17.10;99.90;;;;;;5053811;28;20205;-92
2022/09/01 00:43:13;;;;;;;2.35;2.17;;;17.10;99.90;;;;;;5054228;28;20279;-93
2022/09/01 00:45:42;;;;;;;2.47;2.10;;;17.00;99.90;;;;;;5053790;28;20212;-92
2022/09/01 00:48:10;;;;;;;2.03;1.92;;;17.00;99.90;;;;;;5054319;28;20205;-91
2022/09/01 00:50:40;;;;;;;1.98;1.88;;;16.90;99.90;;;;;;5053750;28;20201;-92
2022/09/01 00:53:09;;;;;;;2.20;2.00;;;16.90;99.90;;;;;;5053799;28;20202;-91
2022/09/01 00:55:38;;;;;;;2.60;2.40;;;16.90;99.90;;;;;;5053371;28;20269;-92
2022/09/01 00:58:07;;;;;;;2.15;1.98;;;16.90;99.90;;;;;;5053385;28;20209;-91
2022/09/01 01:00:50;;;;;;;2.03;1.92;;;16.90;99.90;;;;;;5053650;28;20233;-93
2022/09/01 01:03:19;;;;;;;2.40;2.22;;;16.90;99.90;;;;;;5054317;28;20226;-93
2022/09/01 01:05:53;;;;;;;3.60;2.42;;;16.90;99.90;;;;;;5054348;28;20292;-93
2022/09/01 01:08:30;;;;;;;2.35;2.15;;;16.90;99.90;;;;;;5053226;28;20205;-92
2022/09/01 01:10:58;;;;;;;2.05;1.95;;;16.90;99.90;;;;;;5053513;28;20312;-92
2022/09/01 01:13:27;;;;;;;1.92;1.83;;;16.80;99.90;;;;;;5053483;28;20201;-92
2022/09/01 01:15:58;;;;;;;1.83;1.73;;;16.80;99.90;;;;;;5053628;28;20213;-92
2022/09/01 01:18:26;;;;;;;2.65;2.40;;;16.80;99.90;;;;;;5053137;28;20321;-92
2022/09/01 01:23:56;;;;;;;2.78;2.58;;;16.80;99.90;;;;;;5053402;28;20232;-92
2022/09/01 01:26:27;;;;;;;2.08;1.98;;;16.80;99.90;;;;;;5062302;28;20201;-92
2022/09/01 01:28:55;;;;;;;2.22;2.08;;;16.80;99.90;;;;;;5054722;28;20244;-92
2022/09/01 01:31:24;;;;;;;2.20;1.92;;;16.80;99.90;;;;;;5053043;28;20252;-93
2022/09/01 01:33:55;;;;;;;2.72;2.00;;;16.80;99.90;;;;;;5053162;28;20213;-93
2022/09/01 01:36:31;;;;;;;2.10;1.90;;;16.70;99.90;;;;;;5053269;28;20270;-92
2022/09/01 01:39:01;;;;;;;2.78;2.08;;;16.70;99.90;;;;;;5052369;28;20273;-92
2022/09/01 01:41:33;;;;;;;1.90;1.70;;;16.70;99.90;;;;;;5052550;28;20222;-93
2022/09/01 01:44:04;;;;;;;2.92;2.22;;;16.70;99.90;;;;;;5053393;28;20243;-92
2022/09/01 01:46:33;;;;;;;1.92;1.83;;;16.70;99.90;;;;;;5053045;28;20210;-93
2022/09/01 01:49:02;;;;;;;1.80;1.70;;;16.60;99.90;;;;;;5052226;28;20198;-92
2022/09/01 01:51:31;;;;;;;2.47;2.28;;;16.60;99.90;;;;;;5052836;28;20221;-93
2022/09/01 01:54:06;;;;;;;2.47;2.30;;;16.60;99.90;;;;;;5052589;28;20193;-91
2022/09/01 01:56:40;;;;;;;1.95;1.80;;;16.50;99.90;;;;;;5053084;28;20232;-92
2022/09/01 01:59:14;;;;;;;1.90;1.80;;;16.50;99.90;;;;;;5052510;28;20201;-92
2022/09/01 02:01:49;;;;;;;2.20;2.08;;;16.50;99.90;;;;;;5052815;28;20321;-92
2022/09/01 02:04:19;;;;;;;2.30;2.10;;;16.50;99.90;;;;;;5052511;28;20218;-92
2022/09/01 02:06:50;;;;;;;2.50;2.30;;;16.50;99.90;;;;;;5052419;28;20292;-92
2022/09/01 02:09:22;;;;;;;2.38;2.03;;;16.60;99.90;;;;;;5052797;28;20297;-92
2022/09/01 02:11:55;;;;;;;2.05;1.83;;;16.60;99.90;;;;;;5052523;28;20313;-93
2022/09/01 02:14:24;;;;;;;2.55;2.35;;;16.60;99.90;;;;;;5052370;28;20202;-92
2022/09/01 02:16:54;;;;;;;2.05;1.92;;;16.60;99.90;;;;;;5052544;28;20204;-92
2022/09/01 02:19:23;;;;;;;1.75;1.65;;;16.60;99.90;;;;;;5052368;28;20255;-93
2022/09/01 02:21:55;;;;;;;1.92;1.83;;;16.60;99.90;;;;;;5052395;28;20237;-92
2022/09/01 02:24:25;;;;;;;2.20;1.65;;;16.60;99.90;;;;;;5052457;28;20333;-92
2022/09/01 02:26:57;;;;;;;3.50;1.85;;;16.60;99.90;;;;;;5052322;28;20283;-92
2022/09/01 02:29:27;;;;;;;2.20;2.10;;;16.60;99.90;;;;;;5052101;28;20237;-92
2022/09/01 02:31:56;;;;;;;1.77;1.67;;;16.60;99.90;;;;;;5052143;28;20229;-93
2022/09/01 02:34:27;;;;;;;1.70;1.60;;;16.60;99.90;;;;;;5052495;28;20266;-93
2022/09/01 02:36:57;;;;;;;4.75;2.30;;;16.60;99.90;;;;;;5052474;28;20216;-92
2022/09/01 02:39:28;;;;;;;5.15;2.22;;;16.70;99.90;;;;;;5051923;28;20270;-93
2022/09/01 02:42:00;;;;;;;2.58;1.92;;;16.70;99.90;;;;;;5055092;28;20229;-93
2022/09/01 02:44:29;;;;;;;1.90;1.80;;;16.70;99.90;;;;;;5061498;28;20312;-92
2022/09/01 02:47:00;;;;;;;2.00;1.80;;;16.80;99.90;;;;;;5052360;28;20205;-93
2022/09/01 02:49:29;;;;;;;2.35;2.17;;;16.80;99.90;;;;;;5052038;28;20228;-92
2022/09/01 02:52:00;;;;;;;2.25;2.15;;;16.80;99.90;;;;;;5052555;28;20268;-92
2022/09/01 02:54:31;;;;;;;1.73;1.63;;;16.80;99.90;;;;;;5052300;28;20206;-92
2022/09/01 02:57:02;;;;;;;2.28;2.03;;;16.70;99.90;;;;;;5051880;28;20236;-92
2022/09/01 02:59:33;;;;;;;8.48;1.85;;;16.70;99.90;;;;;;5053433;28;20202;-91
2022/09/01 03:02:02;;;;;;;2.75;2.55;;;16.80;99.90;;;;;;5055917;28;20226;-92
2022/09/01 03:04:33;;;;;;;2.20;2.00;;;16.70;99.90;;;;;;5055730;28;20304;-92
2022/09/01 03:07:03;;;;;;;5.15;2.05;;;16.70;99.90;;;;;;5055942;28;20206;-92
2022/09/01 03:09:34;;;;;;;3.33;2.35;;;16.70;99.90;;;;;;5055746;28;20288;-92
2022/09/01 03:12:06;;;;;;;3.00;2.53;;;16.70;99.90;;;;;;5055562;28;20260;-92
2022/09/01 03:14:34;;;;;;;3.78;2.72;;;16.60;99.90;;;;;;5055774;28;20202;-92
2022/09/01 03:17:03;;;;;;;1.90;1.80;;;16.60;99.90;;;;;;5055720;28;20213;-92
2022/09/01 03:19:38;;;;;;;1.77;1.67;;;16.60;99.90;;;;;;5055032;28;20297;-93
2022/09/01 03:22:07;;;;;;;1.98;1.83;;;16.60;99.90;;;;;;5055496;28;20293;-92
2022/09/01 03:24:36;;;;;;;2.15;2.00;;;16.60;99.90;;;;;;5055078;28;20307;-94
2022/09/01 03:27:06;;;;;;;2.35;2.15;;;16.50;99.90;;;;;;5055424;28;20234;-91
2022/09/01 03:29:34;;;;;;;2.53;2.30;;;16.50;99.90;;;;;;5055095;28;20237;-93
2022/09/01 03:32:04;;;;;;;3.22;2.38;;;16.50;99.90;;;;;;5055339;28;20230;-92
2022/09/01 03:34:35;;;;;;;2.58;2.38;;;16.50;99.90;;;;;;5059654;28;20197;-92
2022/09/01 03:37:06;;;;;;;2.00;1.90;;;16.50;99.90;;;;;;5057733;28;20206;-92
2022/09/01 03:39:35;;;;;;;2.40;2.20;;;16.50;99.90;;;;;;5060802;28;20213;-93
2022/09/01 03:42:07;;;;;;;6.13;2.33;;;16.50;99.90;;;;;;5064731;28;20277;-92
2022/09/01 03:44:39;;;;;;;1.85;1.75;;;16.50;99.90;;;;;;5058154;28;20268;-91
2022/09/01 03:47:13;;;;;;;2.67;2.38;;;16.50;99.90;;;;;;5055067;28;20237;-92
2022/09/01 03:49:44;;;;;;;2.40;2.15;;;16.50;99.90;;;;;;5054445;28;20292;-93
2022/09/01 03:52:13;;;;;;;2.55;2.33;;;16.50;99.90;;;;;;5054959;28;20218;-92
2022/09/01 03:54:42;;;;;;;2.97;2.05;;;16.50;99.90;;;;;;5054992;28;20202;-93
2022/09/01 03:57:12;;;;;;;2.10;1.70;;;16.60;99.90;;;;;;5059400;28;20240;-91
2022/09/01 03:59:44;;;;;;;2.30;1.75;;;16.60;99.90;;;;;;5057315;28;20205;-91
2022/09/01 04:02:13;;;;;;;2.10;2.00;;;16.50;99.90;;;;;;5062918;28;20244;-92
2022/09/01 04:04:42;;;;;;;2.47;2.15;;;16.60;99.90;;;;;;5054452;28;20254;-92
2022/09/01 04:07:10;;;;;;;1.80;1.70;;;16.50;99.90;;;;;;5054707;28;20259;-92
2022/09/01 04:09:46;;;;;;;1.77;1.65;;;16.60;99.90;;;;;;5054521;28;20296;-92
2022/09/01 04:12:16;;;;;;;4.43;2.45;;;16.60;99.90;;;;;;5054052;28;20222;-92
2022/09/01 04:14:46;;;;;;;1.88;1.65;;;16.60;99.90;;;;;;5054599;28;20232;-94
2022/09/01 04:20:07;;;;;;;3.55;1.95;;;16.60;99.90;;;;;;5053991;28;20213;-92
2022/09/01 04:22:37;;;;;;;2.63;2.42;;;16.60;99.90;;;;;;5054959;28;20290;-93
2022/09/01 04:25:07;;;;;;;3.92;1.88;;;16.70;99.90;;;;;;5054629;28;20229;-92
2022/09/01 04:27:39;;;;;;;1.65;1.50;;;16.70;99.90;;;;;;5054901;28;20232;-91
2022/09/01 04:30:10;;;;;;;2.45;2.03;;;16.70;99.90;;;;;;5054272;28;20256;-91
2022/09/01 04:32:39;;;;;;;2.03;1.92;;;16.70;99.90;;;;;;5054278;28;20252;-92
2022/09/01 04:35:10;;;;;;;2.15;1.95;;;16.70;99.90;;;;;;5054057;28;20251;-92
2022/09/01 04:37:38;;;;;;;2.83;2.20;;;16.70;99.90;;;;;;5053814;28;20300;-92
2022/09/01 04:40:08;;;;;;;1.88;1.77;;;16.70;99.90;;;;;;5053908;28;20202;-92
2022/09/01 04:42:38;;;;;;;2.30;1.92;;;16.70;99.90;;;;;;5054104;28;20248;-92
2022/09/01 04:45:09;;;;;;;3.10;2.08;;;16.80;99.90;;;;;;5053565;28;20238;-92
2022/09/01 04:47:40;;;;;;;1.75;1.65;;;16.80;99.90;;;;;;5053278;28;20204;-92
2022/09/01 04:50:13;;;;;;;1.83;1.70;;;16.80;99.90;;;;;;5053486;28;20202;-92
2022/09/01 04:52:42;;;;;;;2.67;2.15;;;16.80;99.90;;;;;;5053901;28;20242;-92
2022/09/01 04:55:16;;;;;;;1.80;1.60;;;16.80;99.90;;;;;;5053789;28;20229;-92
2022/09/01 04:57:48;;;;;;;5.53;2.10;;;16.80;99.90;;;;;;5053545;28;20295;-92
2022/09/01 05:00:22;;;;;;;2.00;1.90;;;16.90;99.90;;;;;;5053466;28;20197;-93
2022/09/01 05:02:52;;;;;;;3.45;2.00;;;16.90;99.90;;;;;;5053633;28;20202;-92
2022/09/01 05:05:22;;;;;;;2.03;1.75;;;16.90;99.90;;;;;;5053547;28;20247;-93
2022/09/01 05:07:54;;;;;;;2.33;2.13;;;16.90;99.90;;;;;;5053448;28;20253;-92
2022/09/01 05:10:28;;;;;;;2.55;2.35;;;16.90;99.90;;;;;;5053144;28;20244;-92
2022/09/01 05:12:59;;;;;;;2.95;2.13;;;16.90;99.90;;;;;;5053437;28;20220;-92
2022/09/01 05:15:29;;;;;;;1.98;1.88;;;16.90;99.90;;;;;;5053204;28;20226;-92
2022/09/01 05:17:58;;;;;;;2.00;1.75;;;17.00;99.90;;;;;;5057997;28;20225;-92
2022/09/01 05:20:28;;;;;;;2.22;2.00;;;16.90;99.90;;;;;;5060911;28;20206;-92
2022/09/01 05:22:57;;;;;;;2.47;2.10;;;17.00;99.90;;;;;;5053034;28;20300;-93
2022/09/01 05:25:26;;;;;;;2.88;1.98;;;17.00;99.90;;;;;;5052980;28;20308;-93
2022/09/01 05:27:55;;;;;;;1.83;1.70;;;17.00;99.90;;;;;;5052991;28;20237;-93
2022/09/01 05:30:27;;;;;;;1.63;1.55;;;17.10;99.90;;;;;;5052601;28;20225;-93
2022/09/01 05:32:55;;;;;;;1.50;1.40;;;17.10;99.90;;;;;;5053419;28;20205;-92
2022/09/01 05:35:26;;;;;;;1.67;1.58;;;17.20;99.90;;;;;;5052737;28;20297;-93
2022/09/01 05:37:59;;;;;;;1.85;1.55;;;17.20;99.90;;;;;;5052950;28;20288;-93
2022/09/01 05:40:28;;;;;;;1.85;1.73;;;17.30;99.90;;;;;;5052386;28;20289;-93
2022/09/01 05:42:58;;;;;;;2.88;2.00;;;17.30;99.90;;;;;;5052957;28;20205;-93
2022/09/01 05:45:34;;;;;;;3.47;2.03;;;17.40;99.90;;;;;;5052760;28;20214;-92
2022/09/01 05:48:22;;;;;;;1.40;1.30;;;17.40;99.90;;;;;;5052646;28;20281;-92
2022/09/01 05:50:56;;;;;;;1.90;1.80;;;17.50;99.90;;;;;;5052809;28;20256;-92
2022/09/01 05:53:25;;;;;;;2.00;1.67;;;17.50;99.90;;;;;;5052821;28;20210;-92
2022/09/01 05:55:56;;;;;;;2.00;1.90;;;17.40;99.90;;;;;;5052796;28;20208;-91
2022/09/01 05:58:26;;;;;;;2.17;1.77;;;17.40;99.90;;;;;;5052840;28;20287;-93
2022/09/01 06:01:21;;;;;;;1.77;1.55;;;17.40;99.90;;;;;;5052495;28;20253;-92
2022/09/01 06:03:53;;;;;;;2.00;1.85;;;17.40;99.90;;;;;;5052514;28;20220;-93
2022/09/01 06:06:22;;;;;;;1.60;1.45;;;17.40;99.90;;;;;;5052254;28;20308;-93
2022/09/01 06:08:50;;;;;;;1.90;1.80;;;17.40;99.90;;;;;;5052331;28;20205;-92
2022/09/01 06:11:20;;;;;;;1.70;1.60;;;17.40;99.90;;;;;;5052590;28;20226;-91
2022/09/01 06:13:51;;;;;;;4.43;2.25;;;17.40;99.90;;;;;;5052711;28;20401;-92
2022/09/01 06:16:24;;;;;;;2.47;2.28;;;17.40;99.90;;;;;;5052549;28;20206;-93
2022/09/01 06:18:54;;;;;;;1.70;1.60;;;17.50;99.90;;;;;;5052274;28;20236;-93
2022/09/01 06:21:23;;;;;;;1.45;1.35;;;17.50;99.90;;;;;;5052109;28;20233;-92
2022/09/01 06:23:53;;;;;;;1.90;1.63;;;17.50;99.90;;;;;;5052179;28;20250;-92
2022/09/01 06:26:25;;;;;;;1.75;1.63;;;17.50;99.90;;;;;;5052410;28;20213;-93
2022/09/01 06:28:55;;;;;;;2.10;1.90;;;17.60;99.90;;;;;;5052349;28;20244;-93
2022/09/01 06:31:28;;;;;;;1.33;1.23;;;17.60;99.90;;;;;;5052312;28;20285;-92
2022/09/01 06:33:58;;;;;;;1.73;1.63;;;17.70;99.90;;;;;;5053095;28;20284;-93
2022/09/01 06:36:31;;;;;;;1.77;1.63;;;17.70;99.90;;;;;;5065097;28;20205;-92
2022/09/01 06:39:02;;;;;;;2.20;1.60;;;17.80;99.90;;;;;;5058326;28;20216;-92
2022/09/01 06:41:31;;;;;;;1.70;1.55;;;17.80;99.90;;;;;;5056235;28;20257;-93
2022/09/01 06:44:00;;;;;;;3.72;1.83;;;17.80;99.90;;;;;;5056076;28;20292;-93
2022/09/01 06:46:30;;;;;;;5.60;1.83;;;17.90;99.90;;;;;;5055517;28;20293;-92
2022/09/01 06:48:59;;;;;;;2.25;1.92;;;18.00;99.90;;;;;;5055783;28;20255;-91
2022/09/01 06:51:28;;;;;;;3.17;2.28;;;18.10;99.90;;;;;;5056075;28;20300;-92
2022/09/01 06:53:58;;;;;;;1.33;1.30;;;18.10;99.90;;;;;;5056542;28;20237;-92
2022/09/01 06:56:28;;;;;;;2.60;1.77;;;18.30;99.90;;;;;;5055885;28;20205;-92
2022/09/01 06:59:04;;;;;;;4.72;1.80;;;18.40;99.90;;;;;;5056237;28;20202;-91
2022/09/01 07:01:34;;;;;;;1.77;1.67;;;18.40;99.90;;;;;;5055819;28;20252;-92
2022/09/01 07:04:04;;;;;;;1.75;1.58;;;18.50;99.90;;;;;;5055681;28;20297;-92
2022/09/01 07:06:40;;;;;;;1.58;1.48;;;18.50;99.90;;;;;;5055944;28;20225;-93
2022/09/01 07:09:29;;;;;;;1.55;1.45;;;18.50;99.90;;;;;;5055324;28;20208;-93
2022/09/01 07:12:18;;;;;;;2.33;2.13;;;18.60;99.90;;;;;;5055533;28;20230;-92
2022/09/01 07:14:56;;;;;;;1.52;1.42;;;18.60;99.90;;;;;;5055576;28;20212;-93
2022/09/01 07:17:48;;;;;;;1.67;1.58;;;18.70;99.90;;;;;;5055086;28;20202;-93
2022/09/01 07:20:19;;;;;;;2.00;1.73;;;18.80;99.90;;;;;;5055585;28;20225;-93
2022/09/01 07:22:53;;;;;;;1.58;1.50;;;18.80;99.90;;;;;;5055508;28;20213;-92
2022/09/01 07:25:40;;;;;;;2.70;2.50;;;18.90;99.90;;;;;;5055589;28;20289;-93
2022/09/01 07:28:31;;;;;;;2.15;1.98;;;19.00;99.90;;;;;;5055456;28;20212;-93
2022/09/01 07:31:05;;;;;;;2.33;2.22;;;19.10;99.90;;;;;;5055683;28;20229;-93
2022/09/01 07:33:57;;;;;;;1.35;1.27;;;19.30;99.90;;;;;;5055348;28;20205;-93
2022/09/01 07:36:46;;;;;;;13.88;1.73;;;19.50;99.90;;;;;;5055177;28;20198;-94
2022/09/01 07:39:34;;;;;;;1.10;1.10;;;19.60;99.90;;;;;;5054273;28;20206;-92
2022/09/01 07:42:19;;;;;;;1.55;1.40;;;19.70;99.90;;;;;;5054998;28;20275;-94
2022/09/01 07:45:10;;;;;;;23.55;2.15;;;19.80;99.90;;;;;;5054330;28;20206;-93
2022/09/01 07:47:55;;;;;;;1.60;1.50;;;19.90;99.90;;;;;;5055167;28;20221;-93
2022/09/01 07:50:27;;;;;;;1.55;1.45;;;19.90;99.90;;;;;;5056195;28;20209;-93
2022/09/01 07:53:17;;;;;;;1.40;1.30;;;20.00;99.90;;;;;;5059605;28;20220;-93
2022/09/01 07:55:48;;;;;;;8.90;1.40;;;19.90;99.90;;;;;;5061344;28;20210;-93
2022/09/01 07:58:18;;;;;;;1.60;1.50;;;20.10;99.90;;;;;;5054948;28;20210;-93
2022/09/01 08:00:48;;;;;;;1.90;1.75;;;20.20;99.90;;;;;;5054907;28;20229;-94
2022/09/01 08:03:18;;;;;;;1.23;1.17;;;20.30;99.90;;;;;;5055061;28;20202;-93
2022/09/01 08:05:52;;;;;;;1.50;1.40;;;20.60;99.90;;;;;;5054669;28;20215;-94
2022/09/01 08:08:21;;;;;;;2.65;2.08;;;20.90;99.90;;;;;;5054244;28;20217;-93
2022/09/01 08:10:56;;;;;;;1.35;1.25;;;21.10;99.90;;;;;;5054826;28;20221;-93
2022/09/01 08:13:34;;;;;;;1.58;1.48;;;21.30;99.90;;;;;;5054687;28;20217;-93
2022/09/01 08:16:10;;;;;;;1.48;1.38;;;21.40;99.90;;;;;;5054894;28;20206;-92
2022/09/01 08:18:48;;;;;;;2.13;2.00;;;21.60;99.90;;;;;;5054024;28;20220;-93
2022/09/01 08:21:22;;;;;;;1.40;1.30;;;21.80;99.90;;;;;;5054145;28;20409;-93
2022/09/01 08:23:51;;;;;;;1.40;1.30;;;22.20;99.90;;;;;;5054025;28;20206;-93
2022/09/01 08:26:22;;;;;;;17.30;1.52;;;22.70;99.90;;;;;;5054305;28;20276;-93
2022/09/01 08:28:52;;;;;;;1.60;1.30;;;23.20;99.90;;;;;;5054138;28;20201;-93
2022/09/01 08:31:26;;;;;;;1.48;1.38;;;23.70;99.90;;;;;;5054310;28;20229;-93
2022/09/01 08:33:58;;;;;;;0.90;0.90;;;24.30;99.90;;;;;;5054505;28;20209;-94
2022/09/01 08:36:28;;;;;;;2.92;1.35;;;24.70;96.90;;;;;;5054089;28;20198;-93
2022/09/01 08:38:57;;;;;;;1.60;1.42;;;25.40;96.10;;;;;;5053400;28;20237;-94
2022/09/01 08:41:57;;;;;;;1.75;1.35;;;26.10;95.80;;;;;;5053690;28;20355;-93
2022/09/01 08:44:47;;;;;;;1.08;1.08;;;26.60;93.50;;;;;;5054415;28;20206;-92
2022/09/01 08:47:20;;;;;;;1.40;1.30;;;27.20;91.40;;;;;;5053909;28;20241;-92
2022/09/01 08:50:07;;;;;;;1.50;1.40;;;27.50;90.10;;;;;;5053817;28;20202;-93
2022/09/01 08:52:46;;;;;;;1.30;1.20;;;28.10;87.70;;;;;;5053925;28;20229;-93
2022/09/01 08:55:26;;;;;;;1.52;1.42;;;28.50;81.50;;;;;;5054131;28;20220;-93
2022/09/01 08:57:56;;;;;;;1.52;1.40;;;28.30;80.00;;;;;;5053443;28;20252;-93
2022/09/01 09:00:31;;;;;;;1.50;1.40;;;28.70;84.40;;;;;;5053524;28;20255;-93
2022/09/01 09:03:15;;;;;;;1.35;1.27;;;28.90;77.00;;;;;;5053882;28;20213;-93
2022/09/01 09:05:57;;;;;;;0.90;0.90;;;29.10;74.70;;;;;;5053798;28;20276;-94
2022/09/01 09:08:51;;;;;;;1.27;1.27;;;29.10;73.80;;;;;;5053053;28;20224;-94
2022/09/01 09:11:28;;;;;;;1.35;1.33;;;;;;;;;;5061700;28;20303;-94
2022/09/01 09:14:04;;;;;;;0.77;0.77;;;29.50;72.30;;;;;;5055157;28;20209;-93
2022/09/01 09:16:39;;;;;;;1.27;1.20;;;29.80;65.60;;;;;;5053660;28;20205;-94
2022/09/01 09:19:11;;;;;;;1.45;1.35;;;29.70;67.50;;;;;;5053247;28;20291;-93
2022/09/01 09:21:40;;;;;;;1.65;1.55;;;30.10;66.00;;;;;;5052993;28;20316;-94
2022/09/01 09:24:16;;;;;;;1.42;1.33;;;30.40;65.10;;;;;;5053293;28;20205;-93
2022/09/01 09:27:19;;;;;;;1.13;1.10;;;30.90;63.70;;;;;;5053240;28;20212;-95
2022/09/01 09:29:49;;;;;;;1.10;1.10;;;31.40;63.20;;;;;;5053056;28;20228;-94
2022/09/01 09:32:19;;;;;;;4.28;1.50;;;31.50;62.40;;;;;;5053344;28;20229;-93
2022/09/01 09:35:21;;;;;;;1.50;1.20;;;31.80;62.70;;;;;;5053181;28;20201;-93
2022/09/01 09:37:50;;;;;;;1.55;1.10;;;31.30;58.30;;;;;;5052767;28;20247;-94
2022/09/01 09:40:22;;;;;;;0.93;0.93;;;30.70;58.40;;;;;;5052497;28;20224;-93
2022/09/01 09:43:07;;;;;;;1.23;1.23;;;30.30;56.70;;;;;;5052804;28;20221;-93
2022/09/01 09:45:38;;;;;;;2.45;1.10;;;30.10;60.20;;;;;;5052775;28;20213;-93
2022/09/01 09:48:26;;;;;;;1.55;1.45;;;30.50;60.10;;;;;;5052770;28;20225;-93
2022/09/01 09:50:56;;;;;;;5.45;1.52;;;30.80;59.30;;;;;;5052900;28;20225;-94
2022/09/01 09:53:28;;;;;;;1.23;1.13;;;31.20;58.10;;;;;;5052894;28;20213;-94
2022/09/01 09:56:13;;;;;;;5.03;1.48;;;31.20;59.60;;;;;;5052866;28;20213;-94
2022/09/01 09:58:45;;;;;;;1.40;1.30;;;31.50;58.50;;;;;;5052857;28;20197;-93
2022/09/01 10:01:28;;;;;;;5.28;1.40;;;31.70;58.90;;;;;;5052616;28;20229;-95
2022/09/01 10:04:06;;;;;;;1.45;1.35;;;31.80;58.90;;;;;;5052875;28;20205;-94
2022/09/01 10:06:38;;;;;;;1.20;1.13;;;31.10;59.20;;;;;;5052625;28;20213;-94
2022/09/01 10:09:09;;;;;;;1.63;1.52;;;30.40;59.00;;;;;;5051636;28;20291;-94
2022/09/01 10:11:41;;;;;;;1.20;1.17;;;30.20;57.80;;;;;;5052242;28;20248;-94
2022/09/01 10:14:16;;;;;;;1.23;1.13;;;29.70;59.50;;;;;;5052389;28;20202;-94
2022/09/01 10:17:09;;;;;;;1.85;1.30;;;29.70;59.90;;;;;;5053339;28;20312;-95
2022/09/01 10:19:41;;;;;;;2.28;1.02;;;29.90;58.90;;;;;;5052601;28;20248;-94
2022/09/01 10:22:11;;;;;;;3.17;1.20;;;29.70;58.30;;;;;;5052350;28;20251;-94
2022/09/01 10:24:42;;;;;;;1.40;1.25;;;29.50;58.20;;;;;;5052557;28;20208;-96
2022/09/01 10:27:20;;;;;;;2.10;1.10;;;29.30;58.80;;;;;;5052985;28;20205;-94
2022/09/01 10:29:54;;;;;;;2.75;1.50;;;29.50;59.00;;;;;;5063581;28;20219;-95
2022/09/01 10:32:44;;;;;;;2.88;1.50;;;29.60;58.40;;;;;;5054021;28;20223;-95
2022/09/01 10:35:24;;;;;;;1.23;1.02;;;29.70;61.40;;;;;;5053149;28;20225;-93
2022/09/01 10:37:55;;;;;;;1.17;1.17;;;30.20;59.00;;;;;;5052227;28;20343;-96
2022/09/01 10:40:47;;;;;;;1.20;1.02;;;30.60;58.30;;;;;;5052210;28;20205;-95
2022/09/01 10:43:37;;;;;;;1.13;1.13;;;30.50;58.40;;;;;;5052368;28;20263;-95
2022/09/01 10:46:43;;;;;;;1.67;1.10;;;30.00;56.90;;;;;;5052495;28;20210;-94
2022/09/01 10:49:50;;;;;;;1.20;1.10;;;29.30;58.50;;;;;;5051715;28;20229;-95
2022/09/01 10:53:07;;;;;;;1.20;1.10;;;28.70;58.70;;;;;;5052637;28;20236;-95
2022/09/01 10:55:41;;;;;;;1.25;1.15;;;28.10;60.20;;;;;;5052070;28;20213;-95
2022/09/01 10:58:34;;;;;;;3.28;1.80;;;27.80;59.50;;;;;;5051789;28;20248;-94
2022/09/01 11:01:52;;;;;;;1.45;1.15;;;27.20;62.00;;;;;;5051898;28;20232;-95
2022/09/01 11:05:13;;;;;;;1.20;1.13;;;27.40;62.40;;;;;;5052013;28;20228;-94
2022/09/01 11:07:45;;;;;;;1.70;1.30;;;28.20;59.30;;;;;;5052283;28;20206;-95
2022/09/01 11:10:54;;;;;;;1.08;0.98;;;28.40;58.90;;;;;;5051418;28;20202;-94
2022/09/01 11:14:06;;;;;;;1.10;1.10;;;28.50;59.80;;;;;;5052167;28;20225;-95
2022/09/01 11:17:14;;;;;;;1.52;1.00;;;27.70;60.80;;;;;;5020828;28;20201;-94
2022/09/01 11:19:45;;;;;;;4.53;1.00;;;27.20;61.90;;;;;;5052650;28;20212;-94
2022/09/01 11:22:37;;;;;;;1.45;1.25;;;26.90;61.30;;;;;;5055652;28;20240;-95
2022/09/01 11:25:35;;;;;;;1.08;1.08;;;27.20;61.50;;;;;;5052162;28;20263;-94
2022/09/01 11:28:43;;;;;;;2.05;1.63;;;27.30;60.80;;;;;;5055503;28;20225;-96
2022/09/01 11:31:31;;;;;;;1.08;1.08;;;28.10;62.90;;;;;;5051843;28;20234;-95
2022/09/01 11:34:13;;;;;;;1.35;1.25;;;28.80;60.60;;;;;;5055701;28;20293;-94
2022/09/01 11:37:02;;;;;;;1.38;1.27;;;28.80;59.80;;;;;;5055618;28;20216;-94
2022/09/01 11:40:18;;;;;;;3.08;1.30;;;29.30;59.30;;;;;;5050705;28;20205;-94
2022/09/01 11:42:52;;;;;;;2.50;1.48;;;29.70;58.30;;;;;;4980984;28;20220;-94
2022/09/01 11:45:27;;;;;;;1.95;1.45;;;30.30;57.00;;;;;;5055809;28;20285;-94
2022/09/01 11:47:58;;;;;;;2.03;1.60;;;30.80;58.00;;;;;;5063661;28;20198;-94
2022/09/01 11:50:30;;;;;;;1.45;1.35;;;31.20;54.90;;;;;;5058604;28;20279;-95
2022/09/01 11:53:03;;;;;;;1.30;1.30;;;30.90;54.60;;;;;;5054846;28;20255;-94
2022/09/01 11:55:35;;;;;;;1.63;1.42;;;29.50;55.50;;;;;;5055080;28;20212;-94
2022/09/01 11:58:04;;;;;;;1.08;1.08;;;28.50;56.00;;;;;;5054745;28;20202;-95
2022/09/01 12:00:37;;;;;;;1.70;1.60;;;28.20;57.20;;;;;;5054685;28;20206;-94
2022/09/01 12:03:18;;;;;;;1.23;1.15;;;28.30;59.40;;;;;;5056322;28;20206;-94
2022/09/01 12:05:53;;;;;;;2.63;1.08;;;28.90;58.80;;;;;;5057429;28;20212;-94
2022/09/01 12:08:21;;;;;;;1.35;1.25;;;28.80;56.10;;;;;;5054536;28;20341;-94
2022/09/01 12:10:53;;;;;;;1.10;1.10;;;28.00;57.70;;;;;;5054633;28;20229;-94
2022/09/01 12:13:23;;;;;;;1.33;1.10;;;27.20;58.70;;;;;;5054330;28;20245;-94
2022/09/01 12:15:57;;;;;;;0.90;0.90;;;26.80;58.20;;;;;;5054808;28;20205;-94
2022/09/01 12:18:47;;;;;;;2.05;1.20;;;27.20;58.60;;;;;;5054755;28;20270;-94
2022/09/01 12:21:21;;;;;;;1.08;1.08;;;27.80;60.00;;;;;;5054724;28;20297;-94
2022/09/01 12:23:50;;;;;;;1.75;1.30;;;28.00;58.00;;;;;;5054378;28;20209;-94
2022/09/01 12:26:22;;;;;;;1.33;1.23;;;27.60;58.30;;;;;;5054338;28;20210;-94
2022/09/01 12:28:53;;;;;;;1.00;1.00;;;27.20;60.00;;;;;;5054105;28;20249;-94
2022/09/01 12:31:26;;;;;;;1.58;1.15;;;27.10;59.00;;;;;;5054132;28;20222;-93
2022/09/01 12:33:56;;;;;;;1.48;1.20;;;27.30;59.30;;;;;;5054442;28;20206;-95
2022/09/01 12:36:27;;;;;;;1.00;1.00;;;27.80;58.60;;;;;;5054458;28;20206;-94
2022/09/01 12:38:57;;;;;;;0.82;0.82;;;28.20;56.70;;;;;;5054095;28;20214;-94
2022/09/01 12:41:33;;;;;;;2.13;1.25;;;28.20;56.50;;;;;;5053876;28;20294;-93
2022/09/01 12:44:29;;;;;;;1.60;1.50;;;27.90;57.50;;;;;;5054290;28;20221;-93
2022/09/01 12:47:02;;;;;;;1.30;1.25;;;27.80;59.40;;;;;;5054204;28;20259;-95
2022/09/01 12:49:39;;;;;;;0.90;0.90;;;28.00;59.50;;;;;;5054117;28;20312;-94
2022/09/01 12:52:25;;;;;;;1.10;1.10;;;27.90;60.30;;;;;;5053817;28;20232;-93
2022/09/01 12:55:07;;;;;;;1.70;1.48;;;27.40;59.70;;;;;;5053497;28;20198;-94
2022/09/01 12:57:39;;;;;;;1.65;1.40;;;26.80;61.20;;;;;;5054012;28;20205;-94
2022/09/01 13:00:16;;;;;;;1.85;1.50;;;26.40;60.30;;;;;;5053308;28;20197;-93
2022/09/01 13:02:49;;;;;;;1.70;1.30;;;26.50;62.90;;;;;;5053686;28;20249;-94
2022/09/01 13:05:23;;;;;;;1.42;1.33;;;26.80;60.30;;;;;;5059562;28;20280;-94
2022/09/01 13:08:00;;;;;;;1.05;0.90;;;27.20;60.90;;;;;;5060992;28;20233;-94
2022/09/01 13:10:34;;;;;;;1.10;1.10;;;27.60;59.10;;;;;;5053214;28;20213;-94
2022/09/01 13:13:02;;;;;;;1.83;1.00;;;28.00;60.90;;;;;;5053483;28;20221;-94
2022/09/01 13:15:31;;;;;;;1.23;1.13;;;28.40;57.10;;;;;;5053479;28;20261;-94
2022/09/01 13:18:00;;;;;;;0.80;0.80;;;28.20;59.00;;;;;;5053598;28;20210;-94
2022/09/01 13:20:30;;;;;;;2.08;1.35;;;27.90;57.80;;;;;;5053067;28;20271;-94
2022/09/01 13:22:59;;;;;;;1.30;1.15;;;27.40;59.20;;;;;;5053880;28;20244;-94
2022/09/01 13:25:27;;;;;;;0.93;0.93;;;27.20;60.50;;;;;;5053377;28;20205;-94
2022/09/01 13:27:55;;;;;;;1.00;1.00;;;27.20;59.60;;;;;;5053390;28;20206;-93
2022/09/01 13:30:27;;;;;;;2.30;1.23;;;27.40;58.10;;;;;;5052991;28;20218;-94
2022/09/01 13:32:56;;;;;;;1.00;1.00;;;27.30;57.20;;;;;;5053697;28;20201;-94